sensor_id;sensor_type;location;lat;lon;timestamp;P1;durP1;ratioP1;P2;durP2;ratioP2
72406;SDS011;60396;47.550;18.828;2024-01-15T00:01:32;14.13;;;6.33;;
72406;SDS011;60396;47.550;18.828;2024-01-15T00:04:00;16.62;;;7.07;;
72406;SDS011;60396;47.550;18.828;2024-01-15T00:06:27;16.50;;;6.93;;
72406;SDS011;60396;47.550;18.828;2024-01-15T00:08:56;19.65;;;8.18;;
72406;SDS011;60396;47.550;18.828;2024-01-15T00:11:25;21.90;;;7.68;;
72406;SDS011;60396;47.550;18.828;2024-01-15T00:13:53;16.73;;;7.50;;
72406;SDS011;60396;47.550;18.828;2024-01-15T00:16:21;18.12;;;7.55;;
72406;SDS011;60396;47.550;18.828;2024-01-15T00:18:49;17.10;;;7.10;;
72406;SDS011;60396;47.550;18.828;2024-01-15T00:21:17;15.07;;;6.75;;
72406;SDS011;60396;47.550;18.828;2024-01-15T00:23:45;18.45;;;7.25;;
72406;SDS011;60396;47.550;18.828;2024-01-15T00:26:13;20.20;;;7.17;;
72406;SDS011;60396;47.550;18.828;2024-01-15T00:28:41;17.48;;;6.70;;
72406;SDS011;60396;47.550;18.828;2024-01-15T00:31:09;19.17;;;8.50;;
72406;SDS011;60396;47.550;18.828;2024-01-15T00:33:37;19.35;;;8.55;;
72406;SDS011;60396;47.550;18.828;2024-01-15T00:36:06;16.90;;;7.75;;
72406;SDS011;60396;47.550;18.828;2024-01-15T00:38:35;17.60;;;8.07;;
72406;SDS011;60396;47.550;18.828;2024-01-15T00:41:03;18.58;;;7.47;;
72406;SDS011;60396;47.550;18.828;2024-01-15T00:43:31;22.00;;;8.88;;
72406;SDS011;60396;47.550;18.828;2024-01-15T00:46:01;19.90;;;7.87;;
72406;SDS011;60396;47.550;18.828;2024-01-15T00:48:30;17.08;;;7.50;;
72406;SDS011;60396;47.550;18.828;2024-01-15T00:50:59;18.73;;;7.53;;
72406;SDS011;60396;47.550;18.828;2024-01-15T00:53:26;17.33;;;8.02;;
72406;SDS011;60396;47.550;18.828;2024-01-15T00:55:55;19.75;;;8.57;;
72406;SDS011;60396;47.550;18.828;2024-01-15T00:58:23;16.37;;;7.60;;
72406;SDS011;60396;47.550;18.828;2024-01-15T01:00:51;19.95;;;8.07;;
72406;SDS011;60396;47.550;18.828;2024-01-15T01:03:19;18.03;;;7.50;;
72406;SDS011;60396;47.550;18.828;2024-01-15T01:05:50;18.98;;;7.97;;
72406;SDS011;60396;47.550;18.828;2024-01-15T01:08:18;20.02;;;7.53;;
72406;SDS011;60396;47.550;18.828;2024-01-15T01:10:46;19.30;;;9.07;;
72406;SDS011;60396;47.550;18.828;2024-01-15T01:13:14;18.37;;;7.97;;
72406;SDS011;60396;47.550;18.828;2024-01-15T01:15:42;17.13;;;7.57;;
72406;SDS011;60396;47.550;18.828;2024-01-15T01:18:10;26.23;;;10.30;;
72406;SDS011;60396;47.550;18.828;2024-01-15T01:20:38;40.53;;;14.43;;
72406;SDS011;60396;47.550;18.828;2024-01-15T01:23:06;48.38;;;17.48;;
72406;SDS011;60396;47.550;18.828;2024-01-15T01:25:35;49.80;;;18.42;;
72406;SDS011;60396;47.550;18.828;2024-01-15T01:28:03;44.13;;;19.70;;
72406;SDS011;60396;47.550;18.828;2024-01-15T01:30:31;35.60;;;16.95;;
72406;SDS011;60396;47.550;18.828;2024-01-15T01:32:59;33.40;;;15.55;;
72406;SDS011;60396;47.550;18.828;2024-01-15T01:35:27;31.85;;;15.35;;
72406;SDS011;60396;47.550;18.828;2024-01-15T01:37:55;31.30;;;13.35;;
72406;SDS011;60396;47.550;18.828;2024-01-15T01:40:23;23.60;;;10.07;;
72406;SDS011;60396;47.550;18.828;2024-01-15T01:42:51;22.27;;;10.23;;
72406;SDS011;60396;47.550;18.828;2024-01-15T01:45:19;23.90;;;10.65;;
72406;SDS011;60396;47.550;18.828;2024-01-15T01:47:47;25.15;;;11.35;;
72406;SDS011;60396;47.550;18.828;2024-01-15T01:50:16;27.13;;;11.82;;
72406;SDS011;60396;47.550;18.828;2024-01-15T01:52:44;24.30;;;10.17;;
72406;SDS011;60396;47.550;18.828;2024-01-15T01:55:12;22.92;;;10.20;;
72406;SDS011;60396;47.550;18.828;2024-01-15T01:57:40;28.02;;;12.05;;
72406;SDS011;60396;47.550;18.828;2024-01-15T02:00:08;23.12;;;10.68;;
72406;SDS011;60396;47.550;18.828;2024-01-15T02:02:37;23.12;;;10.70;;
72406;SDS011;60396;47.550;18.828;2024-01-15T02:05:06;22.27;;;10.23;;
72406;SDS011;60396;47.550;18.828;2024-01-15T02:07:35;24.37;;;10.52;;
72406;SDS011;60396;47.550;18.828;2024-01-15T02:10:03;23.23;;;10.27;;
72406;SDS011;60396;47.550;18.828;2024-01-15T02:12:32;23.50;;;10.55;;
72406;SDS011;60396;47.550;18.828;2024-01-15T02:14:59;24.92;;;11.23;;
72406;SDS011;60396;47.550;18.828;2024-01-15T02:17:28;22.27;;;10.37;;
72406;SDS011;60396;47.550;18.828;2024-01-15T02:19:56;22.67;;;9.88;;
72406;SDS011;60396;47.550;18.828;2024-01-15T02:22:24;21.37;;;9.60;;
72406;SDS011;60396;47.550;18.828;2024-01-15T02:24:52;23.90;;;9.57;;
72406;SDS011;60396;47.550;18.828;2024-01-15T02:27:20;22.20;;;9.75;;
72406;SDS011;60396;47.550;18.828;2024-01-15T02:29:48;23.53;;;10.10;;
72406;SDS011;60396;47.550;18.828;2024-01-15T02:32:17;20.55;;;9.23;;
72406;SDS011;60396;47.550;18.828;2024-01-15T02:34:45;21.27;;;9.85;;
72406;SDS011;60396;47.550;18.828;2024-01-15T02:37:13;26.83;;;9.73;;
72406;SDS011;60396;47.550;18.828;2024-01-15T02:39:41;20.98;;;9.73;;
72406;SDS011;60396;47.550;18.828;2024-01-15T02:42:09;21.90;;;9.50;;
72406;SDS011;60396;47.550;18.828;2024-01-15T02:44:37;21.92;;;9.43;;
72406;SDS011;60396;47.550;18.828;2024-01-15T02:47:05;20.00;;;8.88;;
72406;SDS011;60396;47.550;18.828;2024-01-15T02:49:33;22.42;;;9.35;;
72406;SDS011;60396;47.550;18.828;2024-01-15T02:52:01;19.15;;;8.20;;
72406;SDS011;60396;47.550;18.828;2024-01-15T02:54:29;18.17;;;7.83;;
72406;SDS011;60396;47.550;18.828;2024-01-15T02:56:58;17.65;;;8.48;;
72406;SDS011;60396;47.550;18.828;2024-01-15T02:59:25;19.85;;;9.18;;
72406;SDS011;60396;47.550;18.828;2024-01-15T03:01:53;20.92;;;8.93;;
72406;SDS011;60396;47.550;18.828;2024-01-15T03:04:21;21.90;;;9.63;;
72406;SDS011;60396;47.550;18.828;2024-01-15T03:06:49;20.23;;;8.83;;
72406;SDS011;60396;47.550;18.828;2024-01-15T03:09:17;20.60;;;9.55;;
72406;SDS011;60396;47.550;18.828;2024-01-15T03:11:46;23.23;;;9.48;;
72406;SDS011;60396;47.550;18.828;2024-01-15T03:14:14;20.70;;;9.60;;
72406;SDS011;60396;47.550;18.828;2024-01-15T03:16:42;20.92;;;9.20;;
72406;SDS011;60396;47.550;18.828;2024-01-15T03:19:10;22.90;;;10.17;;
72406;SDS011;60396;47.550;18.828;2024-01-15T03:21:38;20.17;;;8.68;;
72406;SDS011;60396;47.550;18.828;2024-01-15T03:24:05;24.42;;;10.85;;
72406;SDS011;60396;47.550;18.828;2024-01-15T03:26:34;24.12;;;10.88;;
72406;SDS011;60396;47.550;18.828;2024-01-15T03:29:02;20.88;;;9.80;;
72406;SDS011;60396;47.550;18.828;2024-01-15T03:31:30;22.17;;;10.03;;
72406;SDS011;60396;47.550;18.828;2024-01-15T03:33:58;22.37;;;10.48;;
72406;SDS011;60396;47.550;18.828;2024-01-15T03:36:26;24.25;;;10.18;;
72406;SDS011;60396;47.550;18.828;2024-01-15T03:38:54;22.15;;;9.75;;
72406;SDS011;60396;47.550;18.828;2024-01-15T03:41:22;25.10;;;10.68;;
72406;SDS011;60396;47.550;18.828;2024-01-15T03:43:50;21.80;;;9.50;;
72406;SDS011;60396;47.550;18.828;2024-01-15T03:46:18;24.75;;;10.93;;
72406;SDS011;60396;47.550;18.828;2024-01-15T03:48:46;27.37;;;10.68;;
72406;SDS011;60396;47.550;18.828;2024-01-15T03:51:15;20.05;;;9.82;;
72406;SDS011;60396;47.550;18.828;2024-01-15T03:53:44;30.17;;;11.23;;
72406;SDS011;60396;47.550;18.828;2024-01-15T03:56:13;24.07;;;10.60;;
72406;SDS011;60396;47.550;18.828;2024-01-15T03:58:41;27.30;;;10.68;;
72406;SDS011;60396;47.550;18.828;2024-01-15T04:01:09;28.35;;;11.60;;
72406;SDS011;60396;47.550;18.828;2024-01-15T04:03:37;27.40;;;12.37;;
72406;SDS011;60396;47.550;18.828;2024-01-15T04:06:06;26.48;;;12.10;;
72406;SDS011;60396;47.550;18.828;2024-01-15T04:08:33;24.30;;;11.97;;
72406;SDS011;60396;47.550;18.828;2024-01-15T04:11:02;25.37;;;12.43;;
72406;SDS011;60396;47.550;18.828;2024-01-15T04:13:33;26.90;;;12.82;;
72406;SDS011;60396;47.550;18.828;2024-01-15T04:16:01;27.27;;;11.68;;
72406;SDS011;60396;47.550;18.828;2024-01-15T04:18:30;26.25;;;12.50;;
72406;SDS011;60396;47.550;18.828;2024-01-15T04:20:58;27.23;;;12.30;;
72406;SDS011;60396;47.550;18.828;2024-01-15T04:23:27;28.42;;;12.80;;
72406;SDS011;60396;47.550;18.828;2024-01-15T04:25:55;26.95;;;12.60;;
72406;SDS011;60396;47.550;18.828;2024-01-15T04:28:23;30.88;;;13.00;;
72406;SDS011;60396;47.550;18.828;2024-01-15T04:30:51;30.80;;;14.15;;
72406;SDS011;60396;47.550;18.828;2024-01-15T04:33:19;28.60;;;12.93;;
72406;SDS011;60396;47.550;18.828;2024-01-15T04:35:48;33.08;;;14.63;;
72406;SDS011;60396;47.550;18.828;2024-01-15T04:38:17;32.90;;;14.32;;
72406;SDS011;60396;47.550;18.828;2024-01-15T04:40:45;28.40;;;13.95;;
72406;SDS011;60396;47.550;18.828;2024-01-15T04:43:12;33.53;;;15.13;;
72406;SDS011;60396;47.550;18.828;2024-01-15T04:45:41;27.23;;;14.03;;
72406;SDS011;60396;47.550;18.828;2024-01-15T04:48:09;29.42;;;14.90;;
72406;SDS011;60396;47.550;18.828;2024-01-15T04:50:37;36.42;;;17.90;;
72406;SDS011;60396;47.550;18.828;2024-01-15T04:53:05;36.72;;;15.95;;
72406;SDS011;60396;47.550;18.828;2024-01-15T04:55:36;37.35;;;17.33;;
72406;SDS011;60396;47.550;18.828;2024-01-15T04:58:04;31.67;;;15.43;;
72406;SDS011;60396;47.550;18.828;2024-01-15T05:00:32;32.13;;;15.55;;
72406;SDS011;60396;47.550;18.828;2024-01-15T05:03:00;35.63;;;16.83;;
72406;SDS011;60396;47.550;18.828;2024-01-15T05:05:27;44.50;;;19.15;;
72406;SDS011;60396;47.550;18.828;2024-01-15T05:07:56;41.13;;;18.37;;
72406;SDS011;60396;47.550;18.828;2024-01-15T05:10:24;38.73;;;17.77;;
72406;SDS011;60396;47.550;18.828;2024-01-15T05:12:52;42.53;;;18.12;;
72406;SDS011;60396;47.550;18.828;2024-01-15T05:15:20;34.92;;;16.37;;
72406;SDS011;60396;47.550;18.828;2024-01-15T05:17:48;35.40;;;15.98;;
72406;SDS011;60396;47.550;18.828;2024-01-15T05:20:16;34.25;;;16.33;;
72406;SDS011;60396;47.550;18.828;2024-01-15T05:22:44;35.90;;;17.30;;
72406;SDS011;60396;47.550;18.828;2024-01-15T05:25:12;32.08;;;15.73;;
72406;SDS011;60396;47.550;18.828;2024-01-15T05:27:40;35.10;;;16.12;;
72406;SDS011;60396;47.550;18.828;2024-01-15T05:30:09;34.97;;;15.95;;
72406;SDS011;60396;47.550;18.828;2024-01-15T05:32:37;32.58;;;15.95;;
72406;SDS011;60396;47.550;18.828;2024-01-15T05:35:05;30.97;;;15.40;;
72406;SDS011;60396;47.550;18.828;2024-01-15T05:37:34;32.17;;;15.35;;
72406;SDS011;60396;47.550;18.828;2024-01-15T05:40:02;33.50;;;16.42;;
72406;SDS011;60396;47.550;18.828;2024-01-15T05:42:32;32.55;;;14.68;;
72406;SDS011;60396;47.550;18.828;2024-01-15T05:45:00;28.62;;;14.65;;
72406;SDS011;60396;47.550;18.828;2024-01-15T05:47:30;32.03;;;14.27;;
72406;SDS011;60396;47.550;18.828;2024-01-15T05:50:00;28.80;;;13.45;;
72406;SDS011;60396;47.550;18.828;2024-01-15T05:52:29;34.42;;;14.93;;
72406;SDS011;60396;47.550;18.828;2024-01-15T05:54:57;32.10;;;15.05;;
72406;SDS011;60396;47.550;18.828;2024-01-15T05:57:25;36.00;;;15.80;;
72406;SDS011;60396;47.550;18.828;2024-01-15T05:59:53;33.80;;;15.47;;
72406;SDS011;60396;47.550;18.828;2024-01-15T06:02:22;32.38;;;13.07;;
72406;SDS011;60396;47.550;18.828;2024-01-15T06:04:51;33.65;;;15.40;;
72406;SDS011;60396;47.550;18.828;2024-01-15T06:07:19;30.80;;;14.20;;
72406;SDS011;60396;47.550;18.828;2024-01-15T06:09:47;28.75;;;13.60;;
72406;SDS011;60396;47.550;18.828;2024-01-15T06:12:15;28.63;;;13.33;;
72406;SDS011;60396;47.550;18.828;2024-01-15T06:14:44;30.65;;;14.15;;
72406;SDS011;60396;47.550;18.828;2024-01-15T06:17:12;29.67;;;14.30;;
72406;SDS011;60396;47.550;18.828;2024-01-15T06:19:40;27.13;;;13.35;;
72406;SDS011;60396;47.550;18.828;2024-01-15T06:22:08;28.10;;;12.80;;
72406;SDS011;60396;47.550;18.828;2024-01-15T06:24:36;29.37;;;13.40;;
72406;SDS011;60396;47.550;18.828;2024-01-15T06:27:05;32.45;;;14.05;;
72406;SDS011;60396;47.550;18.828;2024-01-15T06:29:33;35.35;;;14.90;;
72406;SDS011;60396;47.550;18.828;2024-01-15T06:32:01;30.25;;;14.13;;
72406;SDS011;60396;47.550;18.828;2024-01-15T06:34:29;29.75;;;12.82;;
72406;SDS011;60396;47.550;18.828;2024-01-15T06:36:57;29.57;;;13.20;;
72406;SDS011;60396;47.550;18.828;2024-01-15T06:39:25;30.17;;;13.90;;
72406;SDS011;60396;47.550;18.828;2024-01-15T06:41:53;30.37;;;13.15;;
72406;SDS011;60396;47.550;18.828;2024-01-15T06:44:21;28.40;;;13.85;;
72406;SDS011;60396;47.550;18.828;2024-01-15T06:46:49;30.37;;;13.38;;
72406;SDS011;60396;47.550;18.828;2024-01-15T06:49:17;25.90;;;13.23;;
72406;SDS011;60396;47.550;18.828;2024-01-15T06:51:45;32.13;;;13.10;;
72406;SDS011;60396;47.550;18.828;2024-01-15T06:54:16;27.98;;;12.82;;
72406;SDS011;60396;47.550;18.828;2024-01-15T06:56:44;28.52;;;13.93;;
72406;SDS011;60396;47.550;18.828;2024-01-15T06:59:12;27.10;;;13.13;;
72406;SDS011;60396;47.550;18.828;2024-01-15T07:01:45;27.27;;;12.50;;
72406;SDS011;60396;47.550;18.828;2024-01-15T07:04:16;28.10;;;12.57;;
72406;SDS011;60396;47.550;18.828;2024-01-15T07:06:45;27.42;;;12.80;;
72406;SDS011;60396;47.550;18.828;2024-01-15T07:09:16;31.23;;;14.73;;
72406;SDS011;60396;47.550;18.828;2024-01-15T07:11:44;30.02;;;15.68;;
72406;SDS011;60396;47.550;18.828;2024-01-15T07:14:14;39.17;;;15.90;;
72406;SDS011;60396;47.550;18.828;2024-01-15T07:16:42;36.88;;;16.52;;
72406;SDS011;60396;47.550;18.828;2024-01-15T07:19:15;39.38;;;17.98;;
72406;SDS011;60396;47.550;18.828;2024-01-15T07:21:43;33.97;;;16.30;;
72406;SDS011;60396;47.550;18.828;2024-01-15T07:24:11;39.40;;;18.05;;
72406;SDS011;60396;47.550;18.828;2024-01-15T07:26:39;41.20;;;19.53;;
72406;SDS011;60396;47.550;18.828;2024-01-15T07:29:07;46.67;;;21.95;;
72406;SDS011;60396;47.550;18.828;2024-01-15T07:31:36;44.53;;;20.75;;
72406;SDS011;60396;47.550;18.828;2024-01-15T07:34:04;43.13;;;21.02;;
72406;SDS011;60396;47.550;18.828;2024-01-15T07:36:32;40.38;;;20.30;;
72406;SDS011;60396;47.550;18.828;2024-01-15T07:39:00;40.47;;;19.10;;
72406;SDS011;60396;47.550;18.828;2024-01-15T07:41:28;42.88;;;19.45;;
72406;SDS011;60396;47.550;18.828;2024-01-15T07:43:56;47.40;;;19.15;;
72406;SDS011;60396;47.550;18.828;2024-01-15T07:46:24;38.00;;;17.95;;
72406;SDS011;60396;47.550;18.828;2024-01-15T07:48:52;39.80;;;17.55;;
72406;SDS011;60396;47.550;18.828;2024-01-15T07:51:24;43.23;;;16.77;;
72406;SDS011;60396;47.550;18.828;2024-01-15T07:53:55;34.72;;;15.68;;
72406;SDS011;60396;47.550;18.828;2024-01-15T07:56:23;37.75;;;16.73;;
72406;SDS011;60396;47.550;18.828;2024-01-15T07:58:52;27.95;;;13.98;;
72406;SDS011;60396;47.550;18.828;2024-01-15T08:01:19;36.47;;;15.75;;
72406;SDS011;60396;47.550;18.828;2024-01-15T08:03:48;34.90;;;14.93;;
72406;SDS011;60396;47.550;18.828;2024-01-15T08:06:16;28.35;;;12.25;;
72406;SDS011;60396;47.550;18.828;2024-01-15T08:08:44;32.75;;;15.02;;
72406;SDS011;60396;47.550;18.828;2024-01-15T08:11:13;30.55;;;12.40;;
72406;SDS011;60396;47.550;18.828;2024-01-15T08:13:40;24.90;;;12.20;;
72406;SDS011;60396;47.550;18.828;2024-01-15T08:16:08;27.40;;;13.03;;
72406;SDS011;60396;47.550;18.828;2024-01-15T08:18:36;27.45;;;12.95;;
72406;SDS011;60396;47.550;18.828;2024-01-15T08:21:04;32.40;;;13.50;;
72406;SDS011;60396;47.550;18.828;2024-01-15T08:23:34;28.67;;;12.68;;
72406;SDS011;60396;47.550;18.828;2024-01-15T08:26:02;30.12;;;13.45;;
72406;SDS011;60396;47.550;18.828;2024-01-15T08:28:30;25.10;;;12.27;;
72406;SDS011;60396;47.550;18.828;2024-01-15T08:30:58;23.62;;;10.55;;
72406;SDS011;60396;47.550;18.828;2024-01-15T08:33:26;29.40;;;12.27;;
72406;SDS011;60396;47.550;18.828;2024-01-15T08:35:54;25.23;;;10.70;;
72406;SDS011;60396;47.550;18.828;2024-01-15T08:38:22;22.35;;;10.68;;
72406;SDS011;60396;47.550;18.828;2024-01-15T08:40:50;20.07;;;9.33;;
72406;SDS011;60396;47.550;18.828;2024-01-15T08:43:20;26.92;;;10.93;;
72406;SDS011;60396;47.550;18.828;2024-01-15T08:45:48;22.40;;;10.15;;
72406;SDS011;60396;47.550;18.828;2024-01-15T08:48:16;24.37;;;8.82;;
72406;SDS011;60396;47.550;18.828;2024-01-15T08:50:44;23.52;;;10.57;;
72406;SDS011;60396;47.550;18.828;2024-01-15T08:53:18;23.13;;;8.87;;
72406;SDS011;60396;47.550;18.828;2024-01-15T08:55:46;20.73;;;8.52;;
72406;SDS011;60396;47.550;18.828;2024-01-15T08:58:14;22.10;;;9.45;;
72406;SDS011;60396;47.550;18.828;2024-01-15T09:00:42;19.77;;;9.30;;
72406;SDS011;60396;47.550;18.828;2024-01-15T09:03:13;19.35;;;7.95;;
72406;SDS011;60396;47.550;18.828;2024-01-15T09:05:42;18.13;;;7.97;;
72406;SDS011;60396;47.550;18.828;2024-01-15T09:08:10;20.55;;;7.82;;
72406;SDS011;60396;47.550;18.828;2024-01-15T09:10:39;18.52;;;8.40;;
72406;SDS011;60396;47.550;18.828;2024-01-15T09:13:07;16.62;;;7.18;;
72406;SDS011;60396;47.550;18.828;2024-01-15T09:15:36;16.25;;;7.43;;
72406;SDS011;60396;47.550;18.828;2024-01-15T09:18:04;16.77;;;7.50;;
72406;SDS011;60396;47.550;18.828;2024-01-15T09:20:35;17.65;;;7.15;;
72406;SDS011;60396;47.550;18.828;2024-01-15T09:23:03;15.80;;;6.47;;
72406;SDS011;60396;47.550;18.828;2024-01-15T09:25:31;15.25;;;6.72;;
72406;SDS011;60396;47.550;18.828;2024-01-15T09:28:00;16.05;;;7.00;;
72406;SDS011;60396;47.550;18.828;2024-01-15T09:30:28;18.03;;;7.83;;
72406;SDS011;60396;47.550;18.828;2024-01-15T09:32:56;17.20;;;7.80;;
72406;SDS011;60396;47.550;18.828;2024-01-15T09:35:25;19.15;;;6.07;;
72406;SDS011;60396;47.550;18.828;2024-01-15T09:37:53;13.45;;;5.87;;
72406;SDS011;60396;47.550;18.828;2024-01-15T09:40:21;18.58;;;7.45;;
72406;SDS011;60396;47.550;18.828;2024-01-15T09:42:50;14.80;;;6.87;;
72406;SDS011;60396;47.550;18.828;2024-01-15T09:45:19;13.27;;;5.95;;
72406;SDS011;60396;47.550;18.828;2024-01-15T09:47:47;14.35;;;5.95;;
72406;SDS011;60396;47.550;18.828;2024-01-15T09:50:16;12.35;;;5.32;;
72406;SDS011;60396;47.550;18.828;2024-01-15T09:52:45;16.12;;;6.43;;
72406;SDS011;60396;47.550;18.828;2024-01-15T09:55:13;13.87;;;5.80;;
72406;SDS011;60396;47.550;18.828;2024-01-15T09:57:44;14.95;;;6.18;;
72406;SDS011;60396;47.550;18.828;2024-01-15T10:00:14;14.60;;;6.28;;
72406;SDS011;60396;47.550;18.828;2024-01-15T10:02:45;18.52;;;7.15;;
72406;SDS011;60396;47.550;18.828;2024-01-15T10:05:16;14.52;;;6.30;;
72406;SDS011;60396;47.550;18.828;2024-01-15T10:07:44;15.50;;;6.70;;
72406;SDS011;60396;47.550;18.828;2024-01-15T10:10:14;18.42;;;7.07;;
72406;SDS011;60396;47.550;18.828;2024-01-15T10:12:42;18.10;;;7.30;;
72406;SDS011;60396;47.550;18.828;2024-01-15T10:15:10;19.98;;;6.95;;
72406;SDS011;60396;47.550;18.828;2024-01-15T10:17:41;16.08;;;6.97;;
72406;SDS011;60396;47.550;18.828;2024-01-15T10:20:12;17.53;;;7.13;;
72406;SDS011;60396;47.550;18.828;2024-01-15T10:22:41;16.08;;;6.62;;
72406;SDS011;60396;47.550;18.828;2024-01-15T10:25:10;13.75;;;6.22;;
72406;SDS011;60396;47.550;18.828;2024-01-15T10:27:39;13.70;;;6.60;;
72406;SDS011;60396;47.550;18.828;2024-01-15T10:30:11;16.40;;;6.95;;
72406;SDS011;60396;47.550;18.828;2024-01-15T10:32:42;12.93;;;6.03;;
72406;SDS011;60396;47.550;18.828;2024-01-15T10:35:32;14.20;;;6.25;;
72406;SDS011;60396;47.550;18.828;2024-01-15T10:38:01;14.00;;;6.00;;
72406;SDS011;60396;47.550;18.828;2024-01-15T10:40:31;14.18;;;5.80;;
72406;SDS011;60396;47.550;18.828;2024-01-15T10:42:59;16.92;;;6.35;;
72406;SDS011;60396;47.550;18.828;2024-01-15T10:45:27;16.07;;;6.00;;
72406;SDS011;60396;47.550;18.828;2024-01-15T10:47:56;14.73;;;6.05;;
72406;SDS011;60396;47.550;18.828;2024-01-15T10:50:27;15.30;;;6.10;;
72406;SDS011;60396;47.550;18.828;2024-01-15T10:52:56;12.00;;;5.30;;
72406;SDS011;60396;47.550;18.828;2024-01-15T10:55:24;14.43;;;5.18;;
72406;SDS011;60396;47.550;18.828;2024-01-15T10:57:53;11.57;;;5.23;;
72406;SDS011;60396;47.550;18.828;2024-01-15T11:00:24;12.50;;;5.80;;
72406;SDS011;60396;47.550;18.828;2024-01-15T11:02:53;11.12;;;4.80;;
72406;SDS011;60396;47.550;18.828;2024-01-15T11:05:22;12.98;;;4.90;;
72406;SDS011;60396;47.550;18.828;2024-01-15T11:07:50;12.40;;;4.85;;
72406;SDS011;60396;47.550;18.828;2024-01-15T11:10:38;12.57;;;4.80;;
72406;SDS011;60396;47.550;18.828;2024-01-15T11:13:13;11.88;;;5.10;;
72406;SDS011;60396;47.550;18.828;2024-01-15T11:18:29;10.38;;;4.07;;
72406;SDS011;60396;47.550;18.828;2024-01-15T11:23:45;11.43;;;4.17;;
72406;SDS011;60396;47.550;18.828;2024-01-15T11:26:28;12.43;;;4.50;;
72406;SDS011;60396;47.550;18.828;2024-01-15T11:29:09;10.57;;;4.00;;
72406;SDS011;60396;47.550;18.828;2024-01-15T11:34:10;11.02;;;3.47;;
72406;SDS011;60396;47.550;18.828;2024-01-15T11:42:00;11.40;;;3.05;;
72406;SDS011;60396;47.550;18.828;2024-01-15T11:44:29;9.80;;;3.33;;
72406;SDS011;60396;47.550;18.828;2024-01-15T11:47:01;7.85;;;2.83;;
72406;SDS011;60396;47.550;18.828;2024-01-15T11:52:14;7.75;;;2.40;;
72406;SDS011;60396;47.550;18.828;2024-01-15T11:54:49;8.43;;;2.83;;
72406;SDS011;60396;47.550;18.828;2024-01-15T11:57:31;7.37;;;2.42;;
72406;SDS011;60396;47.550;18.828;2024-01-15T12:00:05;8.90;;;3.15;;
72406;SDS011;60396;47.550;18.828;2024-01-15T12:02:42;7.97;;;2.70;;
72406;SDS011;60396;47.550;18.828;2024-01-15T12:05:11;8.48;;;2.60;;
72406;SDS011;60396;47.550;18.828;2024-01-15T12:07:47;8.07;;;3.40;;
72406;SDS011;60396;47.550;18.828;2024-01-15T12:10:17;10.77;;;3.15;;
72406;SDS011;60396;47.550;18.828;2024-01-15T12:15:41;9.83;;;3.03;;
72406;SDS011;60396;47.550;18.828;2024-01-15T12:18:12;10.18;;;2.92;;
72406;SDS011;60396;47.550;18.828;2024-01-15T12:20:41;9.45;;;2.95;;
72406;SDS011;60396;47.550;18.828;2024-01-15T12:23:10;8.30;;;2.85;;
72406;SDS011;60396;47.550;18.828;2024-01-15T12:25:37;7.45;;;3.00;;
72406;SDS011;60396;47.550;18.828;2024-01-15T12:28:05;9.17;;;3.17;;
72406;SDS011;60396;47.550;18.828;2024-01-15T12:30:34;8.02;;;2.42;;
72406;SDS011;60396;47.550;18.828;2024-01-15T12:33:03;8.27;;;2.92;;
72406;SDS011;60396;47.550;18.828;2024-01-15T12:35:35;9.60;;;2.97;;
72406;SDS011;60396;47.550;18.828;2024-01-15T12:38:03;8.02;;;2.55;;
72406;SDS011;60396;47.550;18.828;2024-01-15T12:40:32;8.47;;;2.87;;
72406;SDS011;60396;47.550;18.828;2024-01-15T12:43:05;7.15;;;2.28;;
72406;SDS011;60396;47.550;18.828;2024-01-15T12:45:36;6.47;;;2.53;;
72406;SDS011;60396;47.550;18.828;2024-01-15T12:48:05;9.38;;;3.12;;
72406;SDS011;60396;47.550;18.828;2024-01-15T12:50:33;10.20;;;2.40;;
72406;SDS011;60396;47.550;18.828;2024-01-15T12:53:02;9.83;;;2.83;;
72406;SDS011;60396;47.550;18.828;2024-01-15T12:55:30;9.60;;;2.87;;
72406;SDS011;60396;47.550;18.828;2024-01-15T12:57:58;8.13;;;2.92;;
72406;SDS011;60396;47.550;18.828;2024-01-15T13:00:26;7.07;;;2.58;;
72406;SDS011;60396;47.550;18.828;2024-01-15T13:02:54;8.07;;;2.50;;
72406;SDS011;60396;47.550;18.828;2024-01-15T13:05:22;8.67;;;2.77;;
72406;SDS011;60396;47.550;18.828;2024-01-15T13:07:52;8.50;;;2.90;;
72406;SDS011;60396;47.550;18.828;2024-01-15T13:10:20;7.93;;;2.97;;
72406;SDS011;60396;47.550;18.828;2024-01-15T13:12:52;7.43;;;2.70;;
72406;SDS011;60396;47.550;18.828;2024-01-15T13:15:20;7.90;;;2.90;;
72406;SDS011;60396;47.550;18.828;2024-01-15T13:17:47;8.27;;;2.70;;
72406;SDS011;60396;47.550;18.828;2024-01-15T13:20:15;8.95;;;2.65;;
72406;SDS011;60396;47.550;18.828;2024-01-15T13:22:43;8.00;;;2.85;;
72406;SDS011;60396;47.550;18.828;2024-01-15T13:25:12;11.07;;;3.03;;
72406;SDS011;60396;47.550;18.828;2024-01-15T13:27:40;7.72;;;2.83;;
72406;SDS011;60396;47.550;18.828;2024-01-15T13:30:10;16.33;;;5.07;;
72406;SDS011;60396;47.550;18.828;2024-01-15T13:32:38;8.27;;;2.78;;
72406;SDS011;60396;47.550;18.828;2024-01-15T13:35:06;9.98;;;4.20;;
72406;SDS011;60396;47.550;18.828;2024-01-15T13:37:37;10.93;;;3.92;;
72406;SDS011;60396;47.550;18.828;2024-01-15T13:40:05;9.10;;;3.25;;
72406;SDS011;60396;47.550;18.828;2024-01-15T13:42:35;8.27;;;3.23;;
72406;SDS011;60396;47.550;18.828;2024-01-15T13:45:06;9.38;;;2.92;;
72406;SDS011;60396;47.550;18.828;2024-01-15T13:47:35;9.68;;;4.00;;
72406;SDS011;60396;47.550;18.828;2024-01-15T13:50:05;10.95;;;3.58;;
72406;SDS011;60396;47.550;18.828;2024-01-15T13:52:34;8.90;;;3.42;;
72406;SDS011;60396;47.550;18.828;2024-01-15T13:55:03;10.40;;;3.43;;
72406;SDS011;60396;47.550;18.828;2024-01-15T13:57:31;7.20;;;2.67;;
72406;SDS011;60396;47.550;18.828;2024-01-15T13:59:59;9.82;;;3.62;;
72406;SDS011;60396;47.550;18.828;2024-01-15T14:02:27;9.13;;;3.70;;
72406;SDS011;60396;47.550;18.828;2024-01-15T14:04:55;9.95;;;2.58;;
72406;SDS011;60396;47.550;18.828;2024-01-15T14:07:23;6.33;;;2.20;;
72406;SDS011;60396;47.550;18.828;2024-01-15T14:09:51;13.35;;;3.22;;
72406;SDS011;60396;47.550;18.828;2024-01-15T14:12:19;9.95;;;2.97;;
72406;SDS011;60396;47.550;18.828;2024-01-15T14:14:47;9.25;;;3.22;;
72406;SDS011;60396;47.550;18.828;2024-01-15T14:17:15;9.52;;;3.45;;
72406;SDS011;60396;47.550;18.828;2024-01-15T14:19:43;12.60;;;3.03;;
72406;SDS011;60396;47.550;18.828;2024-01-15T14:22:11;7.80;;;2.60;;
72406;SDS011;60396;47.550;18.828;2024-01-15T14:24:39;7.65;;;2.60;;
72406;SDS011;60396;47.550;18.828;2024-01-15T14:27:07;7.85;;;2.20;;
72406;SDS011;60396;47.550;18.828;2024-01-15T14:29:35;11.90;;;2.55;;
72406;SDS011;60396;47.550;18.828;2024-01-15T14:32:03;6.93;;;2.30;;
72406;SDS011;60396;47.550;18.828;2024-01-15T14:34:31;11.80;;;4.28;;
72406;SDS011;60396;47.550;18.828;2024-01-15T14:36:58;10.55;;;3.15;;
72406;SDS011;60396;47.550;18.828;2024-01-15T14:39:26;8.15;;;2.90;;
72406;SDS011;60396;47.550;18.828;2024-01-15T14:41:54;9.90;;;2.83;;
72406;SDS011;60396;47.550;18.828;2024-01-15T14:44:22;7.60;;;2.77;;
72406;SDS011;60396;47.550;18.828;2024-01-15T14:46:50;14.60;;;2.95;;